Wetterdaten: Woche 05.03.18 - 11.03.18 (KW10)
Datum Zeit Temp. A. Feuchte A. Luftdruck Regen Wind Richtung Taupunkt Windchill Windben
05.03.2018 00:00 -1,5 C 83 % 1004,6 hPa 0,0 l/m 0,2 km/h N -4,0 C -1,5 C 4,4 km/h
05.03.2018 01:00 -0,9 C 83 % 1004,4 hPa 0,0 l/m 0,2 km/h N -3,3 C -0,9 C 4,0 km/h
05.03.2018 02:00 -0,3 C 84 % 1004,3 hPa 0,0 l/m 0,3 km/h N -2,7 C -0,3 C 6,0 km/h
05.03.2018 03:00 -0,1 C 83 % 1004,0 hPa 0,0 l/m 1,4 km/h N -2,7 C -0,1 C 8,0 km/h
05.03.2018 04:00 -0,2 C 84 % 1003,9 hPa 0,0 l/m 0,4 km/h N -2,6 C -0,2 C 6,8 km/h
05.03.2018 05:00 -0,5 C 84 % 1004,1 hPa 0,0 l/m 1,9 km/h N -2,9 C -0,5 C 6,0 km/h
05.03.2018 06:00 -0,8 C 84 % 1004,3 hPa 0,0 l/m 2,7 km/h N -3,2 C -0,8 C 9,3 km/h
05.03.2018 07:00 -1,2 C 84 % 1004,6 hPa 0,0 l/m 2,1 km/h N -3,5 C -1,2 C 8,8 km/h
05.03.2018 08:00 -0,9 C 84 % 1004,8 hPa 0,0 l/m 2,0 km/h N -3,2 C -0,9 C 8,4 km/h
05.03.2018 09:00 -0,9 C 84 % 1004,9 hPa 0,0 l/m 1,7 km/h N -3,2 C -0,9 C 7,2 km/h
05.03.2018 10:00 -0,6 C 84 % 1004,8 hPa 0,0 l/m 1,3 km/h N -3,0 C -0,6 C 7,2 km/h
05.03.2018 11:00 -0,4 C 82 % 1004,7 hPa 0,0 l/m 0,1 km/h N -3,0 C -0,4 C 4,0 km/h
05.03.2018 12:00 0,2 C 80 % 1004,3 hPa 0,0 l/m 0,5 km/h N -2,9 C 0,2 C 8,0 km/h
05.03.2018 13:00 0,4 C 74 % 1003,8 hPa 0,0 l/m 1,4 km/h N -3,6 C 0,4 C 8,4 km/h
05.03.2018 14:00 0,4 C 70 % 1003,6 hPa 0,0 l/m 1,5 km/h N -4,4 C 0,4 C 6,8 km/h
05.03.2018 15:00 0,1 C 70 % 1003,3 hPa 0,0 l/m 1,3 km/h N -4,7 C 0,1 C 6,4 km/h
05.03.2018 16:00 -0,4 C 70 % 1002,8 hPa 0,0 l/m 0,6 km/h N -5,2 C -0,4 C 7,6 km/h
05.03.2018 17:00 -0,7 C 72 % 1002,5 hPa 0,0 l/m 1,2 km/h N -5,2 C -0,7 C 6,0 km/h
05.03.2018 18:00 -1,3 C 78 % 1002,2 hPa 0,0 l/m 0,4 km/h N -4,6 C -1,3 C 4,0 km/h
05.03.2018 19:00 -1,4 C 82 % 1001,7 hPa 0,0 l/m 0,2 km/h N -4,1 C -1,4 C 4,4 km/h
05.03.2018 20:00 -1,4 C 83 % 1001,3 hPa 0,0 l/m 0,8 km/h N -4,0 C -1,4 C 5,2 km/h
05.03.2018 21:00 -1,3 C 84 % 1000,6 hPa 0,0 l/m 0,8 km/h N -3,8 C -1,3 C 4,4 km/h
05.03.2018 22:00 -1,3 C 84 % 1000,0 hPa 0,0 l/m 0,1 km/h N -3,6 C -1,3 C 3,2 km/h
05.03.2018 23:00 -1,0 C 84 % 999,3 hPa 0,0 l/m 0,7 km/h N -3,4 C -1,0 C 4,4 km/h
06.03.2018 00:00 -0,8 C 84 % 998,7 hPa 0,0 l/m 0,9 km/h N -3,2 C -0,8 C 6,0 km/h
06.03.2018 01:00 -0,8 C 84 % 998,2 hPa 0,0 l/m 0,1 km/h N -3,2 C -0,8 C 2,0 km/h
06.03.2018 02:00 -0,8 C 84 % 997,7 hPa 0,0 l/m 0,0 km/h N -3,2 C -0,8 C 1,2 km/h
06.03.2018 03:00 -0,6 C 84 % 997,1 hPa 0,0 l/m 0,0 km/h N -3,0 C -0,6 C 1,6 km/h
06.03.2018 04:00 -0,6 C 84 % 996,3 hPa 0,0 l/m 0,0 km/h N -3,0 C -0,6 C 1,2 km/h
06.03.2018 05:00 -0,6 C 84 % 995,7 hPa 0,0 l/m 0,2 km/h N -3,0 C -0,6 C 3,2 km/h
06.03.2018 06:00 -0,5 C 84 % 995,2 hPa 0,0 l/m 0,3 km/h N -2,8 C -0,5 C 1,6 km/h
06.03.2018 07:00 -0,3 C 84 % 995,1 hPa 0,0 l/m 0,1 km/h N -2,6 C -0,3 C 3,6 km/h
06.03.2018 08:00 0,1 C 84 % 994,8 hPa 0,0 l/m 0,0 km/h N -2,2 C 0,1 C 1,2 km/h
06.03.2018 09:00 0,8 C 84 % 994,5 hPa 0,0 l/m 0,0 km/h N -1,6 C 0,8 C 2,0 km/h
06.03.2018 10:00 1,6 C 84 % 994,0 hPa 0,0 l/m 0,0 km/h N -0,8 C 1,6 C 2,0 km/h
06.03.2018 11:00 2,8 C 84 % 993,4 hPa 2,3 l/m 0,9 km/h N 0,3 C 2,8 C 6,0 km/h
06.03.2018 12:00 2,0 C 83 % 992,8 hPa 1,6 l/m 1,7 km/h N -0,5 C 2,0 C 8,4 km/h
06.03.2018 13:00 2,0 C 84 % 992,4 hPa 0,8 l/m 0,1 km/h N -0,4 C 2,0 C 3,6 km/h
06.03.2018 14:00 2,0 C 84 % 992,5 hPa 0,5 l/m 0,1 km/h N -0,4 C 2,0 C 4,0 km/h
06.03.2018 15:00 2,1 C 84 % 992,6 hPa 0,3 l/m 0,0 km/h N -0,3 C 2,1 C 1,2 km/h
06.03.2018 16:00 2,1 C 83 % 992,4 hPa 0,0 l/m 0,0 km/h N -0,4 C 2,1 C 1,2 km/h
06.03.2018 17:00 2,4 C 84 % 992,7 hPa 0,0 l/m 0,0 km/h N -0,1 C 2,4 C 0,0 km/h
06.03.2018 18:00 1,7 C 83 % 993,3 hPa 0,0 l/m 0,0 km/h N -0,9 C 1,7 C 0,4 km/h
06.03.2018 19:00 1,2 C 83 % 993,7 hPa 0,0 l/m 0,0 km/h N -1,3 C 1,2 C 0,0 km/h
06.03.2018 20:00 0,9 C 84 % 994,1 hPa 0,0 l/m 0,0 km/h N -1,5 C 0,9 C 0,0 km/h
06.03.2018 21:00 0,3 C 84 % 994,3 hPa 0,0 l/m 0,0 km/h N -2,1 C 0,3 C 0,0 km/h
06.03.2018 22:00 -0,8 C 84 % 994,5 hPa 0,0 l/m 0,0 km/h N -3,1 C -0,8 C 0,0 km/h
06.03.2018 23:00 -1,1 C 84 % 994,5 hPa 0,0 l/m 0,0 km/h N -3,4 C -1,1 C 0,0 km/h
07.03.2018 00:00 -0,8 C 84 % 994,6 hPa 0,0 l/m 0,0 km/h N -3,1 C -0,8 C 0,0 km/h
07.03.2018 01:00 -0,7 C 84 % 994,8 hPa 0,0 l/m 0,0 km/h N -3,0 C -0,7 C 0,0 km/h
07.03.2018 02:00 -1,2 C 84 % 995,0 hPa 0,0 l/m 0,0 km/h N -3,5 C -1,2 C 0,4 km/h
07.03.2018 03:00 -1,3 C 84 % 995,2 hPa 0,0 l/m 0,0 km/h N -3,6 C -1,3 C 0,0 km/h
07.03.2018 04:00 -1,1 C 84 % 995,2 hPa 0,0 l/m 0,0 km/h N -3,4 C -1,1 C 1,2 km/h
07.03.2018 05:00 -0,2 C 84 % 995,1 hPa 0,0 l/m 0,0 km/h N -2,5 C -0,2 C 2,0 km/h
07.03.2018 06:00 -0,2 C 84 % 995,5 hPa 0,0 l/m 0,3 km/h N -2,6 C -0,2 C 2,8 km/h
07.03.2018 07:00 -0,3 C 84 % 996,1 hPa 0,0 l/m 0,0 km/h N -2,7 C -0,3 C 0,4 km/h
07.03.2018 08:00 0,5 C 84 % 996,8 hPa 0,0 l/m 0,2 km/h N -1,8 C 0,5 C 1,2 km/h
07.03.2018 09:00 1,7 C 84 % 997,2 hPa 0,0 l/m 0,0 km/h N -0,7 C 1,7 C 1,6 km/h
07.03.2018 10:00 3,9 C 84 % 997,5 hPa 0,0 l/m 0,0 km/h N 1,5 C 3,9 C 0,8 km/h
07.03.2018 11:00 6,5 C 76 % 997,7 hPa 0,0 l/m 0,0 km/h N 2,5 C 6,5 C 1,2 km/h
07.03.2018 12:00 8,9 C 68 % 997,8 hPa 0,3 l/m 0,2 km/h N 3,3 C 8,9 C 2,8 km/h
07.03.2018 13:00 9,8 C 67 % 998,2 hPa 0,0 l/m 0,0 km/h N 4,0 C 9,8 C 1,2 km/h
07.03.2018 14:00 10,7 C 66 % 998,3 hPa 0,0 l/m 0,0 km/h N 4,5 C 10,7 C 0,8 km/h
07.03.2018 15:00 10,5 C 67 % 998,5 hPa 0,0 l/m 0,0 km/h N 4,6 C 10,5 C 1,6 km/h
07.03.2018 16:00 10,3 C 71 % 998,9 hPa 0,0 l/m 0,0 km/h N 5,1 C 10,3 C 0,4 km/h
07.03.2018 17:00 8,4 C 72 % 999,5 hPa 0,0 l/m 0,0 km/h N 3,6 C 8,4 C 0,0 km/h
07.03.2018 18:00 5,7 C 77 % 1000,3 hPa 0,0 l/m 0,0 km/h N 2,0 C 5,7 C 1,2 km/h
07.03.2018 19:00 4,4 C 81 % 1000,9 hPa 0,0 l/m 0,2 km/h N 1,4 C 4,4 C 1,6 km/h
07.03.2018 20:00 4,3 C 82 % 1001,3 hPa 0,0 l/m 0,0 km/h N 1,4 C 4,3 C 0,4 km/h
07.03.2018 21:00 4,0 C 82 % 1001,7 hPa 0,0 l/m 0,1 km/h N 1,3 C 4,0 C 2,8 km/h
07.03.2018 22:00 3,5 C 83 % 1002,0 hPa 0,0 l/m 0,0 km/h N 0,8 C 3,5 C 0,4 km/h
07.03.2018 23:00 5,4 C 82 % 1002,4 hPa 0,0 l/m 5,6 km/h N 2,6 C 4,6 C 18,1 km/h
08.03.2018 00:00 5,3 C 79 % 1003,3 hPa 0,0 l/m 5,1 km/h N 2,0 C 5,0 C 15,7 km/h
08.03.2018 01:00 4,5 C 82 % 1003,9 hPa 1,0 l/m 5,0 km/h N 1,7 C 4,3 C 14,9 km/h
08.03.2018 02:00 4,9 C 83 % 1003,7 hPa 0,0 l/m 6,5 km/h N 2,2 C 4,0 C 16,9 km/h
08.03.2018 03:00 4,5 C 83 % 1003,9 hPa 0,0 l/m 1,0 km/h N 1,8 C 4,5 C 6,4 km/h
08.03.2018 04:00 5,0 C 81 % 1004,3 hPa 0,0 l/m 4,7 km/h N 1,9 C 4,7 C 16,5 km/h
08.03.2018 05:00 6,1 C 74 % 1004,7 hPa 0,0 l/m 7,0 km/h N 1,7 C 5,6 C 18,5 km/h
08.03.2018 06:00 6,2 C 72 % 1005,8 hPa 0,0 l/m 8,7 km/h N 1,5 C 4,3 C 22,1 km/h
08.03.2018 07:00 6,0 C 72 % 1006,7 hPa 0,0 l/m 6,6 km/h N 1,3 C 5,3 C 19,3 km/h
08.03.2018 08:00 6,2 C 71 % 1007,4 hPa 0,0 l/m 5,6 km/h N 1,4 C 6,2 C 18,1 km/h
08.03.2018 09:00 7,0 C 69 % 1007,7 hPa 0,0 l/m 5,5 km/h N 1,6 C 7,0 C 19,7 km/h
08.03.2018 10:00 8,3 C 65 % 1008,0 hPa 0,0 l/m 8,1 km/h N 2,1 C 7,1 C 23,8 km/h
08.03.2018 11:00 9,1 C 61 % 1008,3 hPa 0,0 l/m 9,0 km/h N 1,9 C 7,3 C 22,1 km/h
08.03.2018 12:00 9,7 C 58 % 1008,4 hPa 0,0 l/m 10,2 km/h N 1,8 C 7,2 C 26,6 km/h
08.03.2018 13:00 10,4 C 55 % 1008,4 hPa 0,0 l/m 9,2 km/h N 1,7 C 8,5 C 23,7 km/h
08.03.2018 14:00 11,1 C 54 % 1008,5 hPa 0,0 l/m 6,6 km/h N 2,0 C 10,6 C 21,7 km/h
08.03.2018 15:00 11,0 C 51 % 1008,4 hPa 0,0 l/m 7,1 km/h N 1,1 C 10,3 C 23,3 km/h
08.03.2018 16:00 10,6 C 49 % 1008,4 hPa 0,0 l/m 6,4 km/h N 0,4 C 10,1 C 18,1 km/h
08.03.2018 17:00 9,9 C 51 % 1008,3 hPa 0,3 l/m 0,9 km/h N 0,2 C 9,9 C 8,1 km/h
08.03.2018 18:00 7,4 C 57 % 1008,7 hPa 0,0 l/m 0,0 km/h N -0,7 C 7,4 C 0,4 km/h
08.03.2018 19:00 5,3 C 65 % 1009,2 hPa 0,0 l/m 0,0 km/h N -0,9 C 5,3 C 0,0 km/h
08.03.2018 20:00 2,7 C 69 % 1009,2 hPa 0,0 l/m 0,0 km/h N -2,4 C 2,7 C 0,0 km/h
08.03.2018 21:00 1,9 C 78 % 1008,8 hPa 0,0 l/m 0,0 km/h N -1,6 C 1,9 C 0,0 km/h
08.03.2018 22:00 1,7 C 81 % 1008,5 hPa 0,0 l/m 0,0 km/h N -1,2 C 1,7 C 0,0 km/h
08.03.2018 23:00 0,4 C 82 % 1008,1 hPa 0,0 l/m 0,0 km/h N -2,3 C 0,4 C 0,4 km/h
09.03.2018 00:00 -0,5 C 83 % 1008,2 hPa 0,0 l/m 0,0 km/h N -3,1 C -0,5 C 0,0 km/h
09.03.2018 01:00 -1,2 C 84 % 1008,3 hPa 0,0 l/m 0,0 km/h N -3,6 C -1,2 C 0,0 km/h
09.03.2018 02:00 -1,2 C 84 % 1008,2 hPa 0,0 l/m 0,1 km/h N -3,5 C -1,2 C 1,2 km/h
09.03.2018 03:00 -0,8 C 84 % 1008,5 hPa 0,0 l/m 0,0 km/h N -3,1 C -0,8 C 0,8 km/h
09.03.2018 04:00 -0,9 C 84 % 1008,9 hPa 0,0 l/m 0,0 km/h N -3,3 C -0,9 C 0,0 km/h
09.03.2018 05:00 -1,5 C 84 % 1009,5 hPa 0,0 l/m 0,0 km/h N -3,8 C -1,5 C 0,0 km/h
09.03.2018 06:00 -1,4 C 84 % 1009,9 hPa 0,0 l/m 0,0 km/h N -3,7 C -1,4 C 0,4 km/h
09.03.2018 07:00 -0,2 C 84 % 1010,6 hPa 0,0 l/m 0,1 km/h N -2,6 C -0,2 C 1,2 km/h
09.03.2018 08:00 1,8 C 84 % 1011,5 hPa 0,0 l/m 0,3 km/h N -0,6 C 1,8 C 3,2 km/h
09.03.2018 09:00 3,3 C 84 % 1011,8 hPa 0,0 l/m 0,1 km/h N 0,9 C 3,3 C 0,8 km/h
09.03.2018 10:00 5,5 C 82 % 1012,0 hPa 0,0 l/m 0,0 km/h N 2,7 C 5,5 C 0,8 km/h
09.03.2018 11:00 8,3 C 65 % 1011,7 hPa 0,0 l/m 0,2 km/h N 2,1 C 8,3 C 4,0 km/h
09.03.2018 12:00 13,5 C 49 % 1010,8 hPa 0,0 l/m 5,2 km/h N 3,0 C 13,3 C 16,9 km/h
09.03.2018 13:00 14,2 C 45 % 1010,6 hPa 0,0 l/m 3,7 km/h N 2,3 C 14,2 C 16,1 km/h
09.03.2018 14:00 13,8 C 43 % 1010,4 hPa 0,0 l/m 3,0 km/h N 1,3 C 13,8 C 12,5 km/h
09.03.2018 15:00 14,5 C 42 % 1010,1 hPa 0,0 l/m 1,0 km/h N 1,8 C 14,5 C 5,6 km/h
09.03.2018 16:00 13,7 C 52 % 1010,5 hPa 0,0 l/m 0,0 km/h N 4,0 C 13,7 C 1,2 km/h
09.03.2018 17:00 11,5 C 58 % 1011,1 hPa 0,0 l/m 0,2 km/h N 3,6 C 11,5 C 3,2 km/h
09.03.2018 18:00 10,0 C 60 % 1011,0 hPa 0,0 l/m 0,0 km/h N 2,6 C 10,0 C 0,0 km/h
09.03.2018 19:00 8,2 C 66 % 1010,8 hPa 0,0 l/m 0,0 km/h N 2,2 C 8,2 C 0,0 km/h
09.03.2018 20:00 6,9 C 71 % 1010,8 hPa 0,0 l/m 0,0 km/h N 2,1 C 6,9 C 0,0 km/h
09.03.2018 21:00 6,6 C 72 % 1011,0 hPa 0,0 l/m 0,0 km/h N 1,9 C 6,6 C 0,0 km/h
09.03.2018 22:00 6,2 C 73 % 1010,7 hPa 0,0 l/m 0,0 km/h N 1,8 C 6,2 C 0,0 km/h
09.03.2018 23:00 5,3 C 75 % 1010,1 hPa 0,0 l/m 0,0 km/h N 1,2 C 5,3 C 0,0 km/h
10.03.2018 00:00 4,4 C 78 % 1009,9 hPa 0,0 l/m 0,0 km/h N 0,8 C 4,4 C 0,0 km/h
10.03.2018 01:00 3,8 C 79 % 1009,7 hPa 0,0 l/m 0,0 km/h N 0,5 C 3,8 C 0,0 km/h
10.03.2018 02:00 3,6 C 81 % 1009,4 hPa 0,0 l/m 0,0 km/h N 0,6 C 3,6 C 0,0 km/h
10.03.2018 03:00 3,3 C 81 % 1009,1 hPa 0,0 l/m 0,0 km/h N 0,4 C 3,3 C 0,0 km/h
10.03.2018 04:00 2,8 C 82 % 1009,2 hPa 0,0 l/m 0,0 km/h N 0,1 C 2,8 C 0,0 km/h
10.03.2018 05:00 3,0 C 83 % 1009,1 hPa 0,0 l/m 0,0 km/h N 0,5 C 3,0 C 0,0 km/h
10.03.2018 06:00 3,1 C 83 % 1009,1 hPa 0,0 l/m 0,0 km/h N 0,6 C 3,1 C 0,0 km/h
10.03.2018 07:00 3,1 C 84 % 1009,5 hPa 0,0 l/m 0,0 km/h N 0,6 C 3,1 C 0,0 km/h
10.03.2018 08:00 4,4 C 83 % 1009,6 hPa 0,0 l/m 0,0 km/h N 1,8 C 4,4 C 1,2 km/h
10.03.2018 09:00 7,6 C 80 % 1009,4 hPa 0,0 l/m 0,0 km/h N 4,4 C 7,6 C 1,6 km/h
10.03.2018 10:00 10,8 C 70 % 1009,2 hPa 0,0 l/m 0,1 km/h N 5,5 C 10,8 C 3,6 km/h
10.03.2018 11:00 11,9 C 67 % 1009,0 hPa 0,0 l/m 0,2 km/h N 6,0 C 11,9 C 4,8 km/h
10.03.2018 12:00 13,0 C 64 % 1008,5 hPa 0,0 l/m 0,2 km/h N 6,3 C 13,0 C 4,0 km/h
10.03.2018 13:00 14,2 C 60 % 1007,8 hPa 0,0 l/m 0,5 km/h N 6,6 C 14,2 C 6,8 km/h
10.03.2018 14:00 14,0 C 56 % 1007,6 hPa 0,0 l/m 0,2 km/h N 5,4 C 14,0 C 2,8 km/h
10.03.2018 15:00 13,7 C 58 % 1007,7 hPa 0,0 l/m 0,0 km/h N 5,6 C 13,7 C 2,4 km/h
10.03.2018 16:00 12,8 C 61 % 1007,8 hPa 0,0 l/m 0,0 km/h N 5,5 C 12,8 C 1,2 km/h
10.03.2018 17:00 11,9 C 66 % 1007,7 hPa 0,0 l/m 0,0 km/h N 5,7 C 11,9 C 0,0 km/h
10.03.2018 18:00 10,5 C 68 % 1007,9 hPa 0,0 l/m 0,0 km/h N 4,7 C 10,5 C 0,0 km/h
10.03.2018 19:00 8,8 C 72 % 1008,2 hPa 0,0 l/m 0,0 km/h N 4,1 C 8,8 C 0,0 km/h
10.03.2018 20:00 7,5 C 77 % 1008,3 hPa 0,0 l/m 0,0 km/h N 3,6 C 7,5 C 0,0 km/h
10.03.2018 21:00 6,7 C 80 % 1008,1 hPa 0,0 l/m 0,0 km/h N 3,4 C 6,7 C 0,0 km/h
10.03.2018 22:00 6,8 C 81 % 1008,3 hPa 0,0 l/m 0,0 km/h N 3,8 C 6,8 C 0,0 km/h
10.03.2018 23:00 6,8 C 82 % 1008,2 hPa 0,0 l/m 0,0 km/h N 3,9 C 6,8 C 0,0 km/h
11.03.2018 00:00 6,3 C 82 % 1008,1 hPa 0,0 l/m 0,0 km/h N 3,5 C 6,3 C 0,0 km/h
11.03.2018 01:00 5,5 C 83 % 1008,1 hPa 0,0 l/m 0,0 km/h N 2,8 C 5,5 C 0,0 km/h
11.03.2018 02:00 4,8 C 83 % 1007,6 hPa 0,0 l/m 0,0 km/h N 2,2 C 4,8 C 0,0 km/h
11.03.2018 03:00 3,9 C 83 % 1007,3 hPa 0,0 l/m 0,0 km/h N 1,3 C 3,9 C 0,0 km/h
11.03.2018 04:00 2,6 C 83 % 1007,2 hPa 0,0 l/m 0,0 km/h N 0,0 C 2,6 C 0,0 km/h
11.03.2018 05:00 1,5 C 84 % 1007,2 hPa 0,0 l/m 0,0 km/h N -0,9 C 1,5 C 0,0 km/h
11.03.2018 06:00 0,7 C 84 % 1007,1 hPa 0,0 l/m 0,0 km/h N -1,7 C 0,7 C 0,0 km/h
11.03.2018 07:00 0,8 C 84 % 1007,0 hPa 0,0 l/m 0,0 km/h N -1,6 C 0,8 C 0,0 km/h
11.03.2018 08:00 3,9 C 84 % 1006,5 hPa 0,0 l/m 0,0 km/h N 1,5 C 3,9 C 0,0 km/h
11.03.2018 09:00 7,7 C 84 % 1006,3 hPa 0,0 l/m 0,0 km/h N 5,2 C 7,7 C 2,0 km/h
11.03.2018 10:00 10,9 C 78 % 1005,4 hPa 0,0 l/m 0,2 km/h N 7,1 C 10,9 C 4,8 km/h
11.03.2018 11:00 12,5 C 68 % 1004,4 hPa 0,0 l/m 1,6 km/h N 6,6 C 12,5 C 8,9 km/h
11.03.2018 12:00 12,8 C 66 % 1003,5 hPa 0,0 l/m 2,1 km/h N 6,6 C 12,8 C 14,1 km/h
11.03.2018 13:00 14,4 C 63 % 1002,1 hPa 0,0 l/m 2,0 km/h N 7,5 C 14,4 C 11,3 km/h
11.03.2018 14:00 15,4 C 61 % 1000,6 hPa 0,0 l/m 0,9 km/h N 7,9 C 15,4 C 9,3 km/h
11.03.2018 15:00 16,5 C 57 % 999,5 hPa 0,0 l/m 0,6 km/h N 7,8 C 16,5 C 6,8 km/h
11.03.2018 16:00 16,6 C 55 % 998,6 hPa 0,0 l/m 1,2 km/h N 7,6 C 16,6 C 8,0 km/h
11.03.2018 17:00 15,4 C 58 % 998,2 hPa 0,0 l/m 0,6 km/h N 7,2 C 15,4 C 6,8 km/h
11.03.2018 18:00 14,1 C 61 % 998,3 hPa 0,0 l/m 2,0 km/h N 6,7 C 14,1 C 10,1 km/h
11.03.2018 19:00 13,2 C 65 % 998,1 hPa 0,0 l/m 0,6 km/h N 6,6 C 13,2 C 4,8 km/h
11.03.2018 20:00 12,7 C 68 % 997,8 hPa 0,0 l/m 2,4 km/h N 7,0 C 12,7 C 9,3 km/h
11.03.2018 21:00 13,1 C 70 % 997,4 hPa 0,0 l/m 5,9 km/h N 7,7 C 12,9 C 22,5 km/h
11.03.2018 22:00 12,8 C 73 % 997,8 hPa 0,0 l/m 5,3 km/h N 8,1 C 12,6 C 21,7 km/h
11.03.2018 23:00 12,6 C 75 % 997,4 hPa 0,0 l/m 3,0 km/h N 8,2 C 12,6 C 12,9 km/h
Min-Datum _ 05.03.18 09.03.18 06.03.18 - 05.03.18 - 05.03.18 09.03.18 06.03.18
_ Min-Zeit 00:15 15:15 13:15 - 01:30 - 17:15 05:45 01:30
Minimum _ -1,7 C 41 % 992,4 hPa - 0,0 km/h - -5,4 C -1,7 C 0,0 km/h
Max-Datum _ 11.03.18 05.03.18 09.03.18 06.03.18 08.03.18 - 11.03.18 11.03.18 08.03.18
_ Max-Zeit 16:00 01:45 10:00 11:30 12:15 - 23:15 16:00 10:00
Maximum _ 16,9 C 84 % 1012,1 hPa 2,3 l/m 12,6 km/h
N
- 8,3 C 16,9 C 27,4 km/h
N
Durchschnitt _ 4,8 C 76 % 1003,6 hPa #7,0 l/m 1,1 km/h N 0,6 C 4,7 C 4,9 km/h